createdAt,value
2019-05-02T00:00:14.602Z,50.12
2019-05-02T00:01:40.796Z,51.51
2019-05-02T00:02:48.691Z,51.70
2019-05-02T00:03:57.539Z,51.62
2019-05-02T00:05:10.040Z,51.63
2019-05-02T00:06:18.194Z,51.78
2019-05-02T00:07:26.129Z,52.93
2019-05-02T00:08:34.839Z,52.82
2019-05-02T00:09:48.349Z,51.57
2019-05-02T00:10:54.260Z,51.80
2019-05-02T00:12:03.517Z,52.36
2019-05-02T00:13:11.831Z,52.13
2019-05-02T00:14:19.965Z,52.50
2019-05-02T00:15:28.216Z,51.95
2019-05-02T00:16:37.011Z,53.06
2019-05-02T00:17:45.243Z,52.56
2019-05-02T00:18:53.443Z,52.78
2019-05-02T00:20:01.466Z,53.09
2019-05-02T00:21:10.602Z,52.29
2019-05-02T00:22:18.646Z,53.67
2019-05-02T00:23:27.899Z,52.69
2019-05-02T00:24:39.274Z,53.25
2019-05-02T00:25:52.694Z,52.84
2019-05-02T00:27:01.218Z,53.20
2019-05-02T00:28:07.873Z,53.17
2019-05-02T00:29:19.041Z,53.40
2019-05-02T00:30:29.939Z,53.23
2019-05-02T00:31:36.840Z,54.12
2019-05-02T00:32:44.841Z,54.28
2019-05-02T00:33:52.743Z,52.26
2019-05-02T00:35:00.699Z,53.08
2019-05-02T00:36:08.892Z,52.68
2019-05-02T00:37:18.876Z,53.50
2019-05-02T00:38:26.570Z,53.79
2019-05-02T00:39:34.941Z,52.49
2019-05-02T00:40:46.048Z,53.32
2019-05-02T00:41:52.707Z,53.68
2019-05-02T00:43:00.588Z,54.11
2019-05-02T00:44:10.942Z,54.23
2019-05-02T00:45:23.446Z,54.34
2019-05-02T00:46:30.265Z,52.92
2019-05-02T00:47:42.200Z,52.67
2019-05-02T00:48:54.150Z,52.87
2019-05-02T00:50:06.208Z,53.01
2019-05-02T00:51:12.207Z,52.40
2019-05-02T00:52:20.759Z,52.97
2019-05-02T00:53:30.111Z,51.87
2019-05-02T00:54:38.234Z,52.21
2019-05-02T00:55:46.759Z,53.01
2019-05-02T00:56:54.848Z,53.48
2019-05-02T00:58:02.728Z,54.71
2019-05-02T00:59:10.914Z,54.40
2019-05-02T01:00:19.839Z,54.06
2019-05-02T01:01:30.994Z,53.91
2019-05-02T01:02:41.968Z,54.11
2019-05-02T01:03:52.076Z,55.01
2019-05-02T01:05:03.247Z,55.26
2019-05-02T01:06:14.468Z,54.20
2019-05-02T01:07:25.336Z,54.33
2019-05-02T01:08:30.967Z,53.43
2019-05-02T01:09:42.287Z,53.56
2019-05-02T01:10:52.141Z,54.70
2019-05-02T01:12:03.220Z,54.68
2019-05-02T01:13:09.212Z,55.16
2019-05-02T01:14:17.134Z,55.20
2019-05-02T01:15:25.207Z,54.68
2019-05-02T01:16:32.986Z,55.08
2019-05-02T01:17:40.906Z,54.99
2019-05-02T01:18:48.966Z,55.32
2019-05-02T01:19:57.061Z,55.35
2019-05-02T01:21:05.162Z,54.83
2019-05-02T01:22:15.871Z,55.49
2019-05-02T01:23:27.147Z,55.62
2019-05-02T01:24:34.072Z,55.63
2019-05-02T01:25:42.524Z,55.56
2019-05-02T01:26:59.811Z,56.08
2019-05-02T01:28:18.837Z,55.22
2019-05-02T01:29:29.872Z,55.87
2019-05-02T01:30:55.918Z,55.96
2019-05-02T01:32:17.384Z,55.92
2019-05-02T01:33:29.915Z,56.31
2019-05-02T01:34:54.319Z,56.66
2019-05-02T01:36:12.703Z,57.17
2019-05-02T01:37:22.284Z,56.64
2019-05-02T01:38:34.570Z,56.94
2019-05-02T01:39:43.966Z,57.15
2019-05-02T01:40:54.688Z,57.00
2019-05-02T01:42:04.208Z,57.63
2019-05-02T01:43:32.379Z,57.76
2019-05-02T01:44:40.338Z,57.41
2019-05-02T01:45:48.365Z,57.51
2019-05-02T01:46:58.818Z,57.75
2019-05-02T01:48:09.778Z,57.67
2019-05-02T01:49:16.848Z,57.91
2019-05-02T01:50:28.851Z,57.95
2019-05-02T01:51:36.807Z,57.52
2019-05-02T01:52:44.430Z,57.81
2019-05-02T01:53:52.234Z,57.76
2019-05-02T01:55:01.298Z,57.92
2019-05-02T01:56:09.297Z,57.75
2019-05-02T01:57:17.237Z,57.80
2019-05-02T01:58:25.628Z,57.99
2019-05-02T01:59:33.803Z,58.03
2019-05-02T02:00:44.815Z,57.98
2019-05-02T02:01:53.167Z,58.00
2019-05-02T02:03:04.153Z,58.29
2019-05-02T02:04:16.168Z,58.20
2019-05-02T02:05:22.076Z,57.73
2019-05-02T02:06:29.970Z,57.95
2019-05-02T02:07:37.898Z,58.15
2019-05-02T02:08:45.805Z,58.26
2019-05-02T02:09:54.135Z,58.40
2019-05-02T02:11:02.129Z,58.25
2019-05-02T02:12:11.433Z,58.44
2019-05-02T02:13:19.493Z,58.50
2019-05-02T02:14:27.581Z,57.78
2019-05-02T02:15:35.361Z,58.47
2019-05-02T02:16:43.423Z,58.69
2019-05-02T02:17:52.646Z,58.33
2019-05-02T02:19:03.927Z,58.48
2019-05-02T02:20:16.655Z,58.34
2019-05-02T02:21:43.003Z,58.72
2019-05-02T02:22:52.428Z,58.26
2019-05-02T02:24:04.868Z,58.26
2019-05-02T02:25:36.247Z,58.41
2019-05-02T02:26:47.722Z,58.37
2019-05-02T02:27:54.978Z,58.22
2019-05-02T02:29:07.343Z,58.94
2019-05-02T02:30:17.579Z,58.73
2019-05-02T02:31:23.241Z,58.35
2019-05-02T02:32:31.214Z,59.01
2019-05-02T02:33:40.850Z,58.87
2019-05-02T02:34:49.050Z,58.92
2019-05-02T02:35:57.494Z,58.76
2019-05-02T02:37:13.154Z,59.05
2019-05-02T02:38:15.665Z,59.02
2019-05-02T02:39:24.270Z,59.48
2019-05-02T02:40:33.670Z,59.45
2019-05-02T02:41:45.266Z,59.22
2019-05-02T02:42:51.843Z,59.21
2019-05-02T02:44:07.519Z,59.43
2019-05-02T02:45:36.507Z,59.81
2019-05-02T02:46:46.110Z,59.53
2019-05-02T02:47:59.807Z,59.75
2019-05-02T02:49:04.278Z,59.47
2019-05-02T02:50:12.261Z,59.58
2019-05-02T02:51:23.833Z,59.71
2019-05-02T02:52:29.835Z,59.03
2019-05-02T02:53:37.990Z,58.54
2019-05-02T02:54:46.085Z,59.35
2019-05-02T02:56:01.102Z,59.34
2019-05-02T02:57:04.440Z,59.40
2019-05-02T02:58:12.436Z,59.67
2019-05-02T02:59:26.426Z,59.13
2019-05-02T03:00:30.559Z,59.70
2019-05-02T03:01:38.599Z,59.64
2019-05-02T03:02:48.566Z,59.14
2019-05-02T03:04:01.771Z,59.42
2019-05-02T03:05:07.761Z,59.46
2019-05-02T03:06:15.775Z,59.16
2019-05-02T03:07:25.787Z,59.66
2019-05-02T03:08:45.160Z,59.78
2019-05-02T03:09:43.592Z,59.95
2019-05-02T03:10:51.946Z,59.81
2019-05-02T03:12:18.351Z,59.76
2019-05-02T03:13:26.287Z,59.26
2019-05-02T03:14:40.911Z,59.81
2019-05-02T03:15:47.869Z,59.90
2019-05-02T03:16:56.186Z,59.07
2019-05-02T03:18:04.590Z,59.77
2019-05-02T03:19:14.779Z,59.57
2019-05-02T03:20:23.031Z,59.66
2019-05-02T03:21:31.038Z,60.07
2019-05-02T03:22:41.777Z,59.81
2019-05-02T03:23:48.992Z,60.02
2019-05-02T03:24:57.491Z,60.24
2019-05-02T03:26:07.839Z,60.07
2019-05-02T03:27:16.763Z,60.12
2019-05-02T03:28:24.857Z,60.09
2019-05-02T03:29:40.635Z,60.32
2019-05-02T03:30:42.320Z,60.22
2019-05-02T03:31:50.102Z,60.22
2019-05-02T03:33:05.233Z,60.02
2019-05-02T03:34:08.612Z,60.20
2019-05-02T03:35:18.916Z,60.42
2019-05-02T03:36:30.142Z,59.78
2019-05-02T03:37:35.379Z,60.42
2019-05-02T03:38:43.340Z,60.10
2019-05-02T03:39:57.394Z,60.27
2019-05-02T03:41:01.351Z,60.32
2019-05-02T03:42:09.466Z,60.21
2019-05-02T03:43:18.925Z,60.16
2019-05-02T03:44:27.603Z,59.95
2019-05-02T03:45:39.762Z,59.86
2019-05-02T03:46:45.696Z,60.01
2019-05-02T03:47:53.554Z,60.39
2019-05-02T03:49:07.435Z,60.24
2019-05-02T03:50:11.510Z,60.05
2019-05-02T03:51:21.607Z,60.17
2019-05-02T03:52:29.002Z,60.12
2019-05-02T03:53:36.842Z,60.23
2019-05-02T03:54:50.065Z,60.24
2019-05-02T03:55:55.033Z,60.33
2019-05-02T03:57:03.048Z,60.13
2019-05-02T03:58:14.305Z,60.25
2019-05-02T03:59:21.141Z,60.16
2019-05-02T04:00:29.438Z,60.16
2019-05-02T04:01:41.501Z,60.27
2019-05-02T04:02:59.594Z,60.32
2019-05-02T04:03:59.396Z,60.26
2019-05-02T04:05:08.479Z,60.19
2019-05-02T04:06:20.989Z,60.25
2019-05-02T04:07:39.781Z,60.16
2019-05-02T04:08:39.079Z,60.22
2019-05-02T04:09:46.874Z,60.28
2019-05-02T04:11:20.193Z,60.18
2019-05-02T04:12:32.812Z,60.27
2019-05-02T04:13:39.301Z,60.21
2019-05-02T04:14:47.542Z,59.96
2019-05-02T04:15:55.604Z,60.08
2019-05-02T04:17:03.597Z,60.01
2019-05-02T04:18:15.186Z,59.95
2019-05-02T04:19:28.584Z,59.76
2019-05-02T04:20:32.592Z,59.91
2019-05-02T04:21:40.664Z,59.79
2019-05-02T04:22:50.877Z,59.43
2019-05-02T04:24:12.900Z,59.51
2019-05-02T04:25:08.626Z,59.79
2019-05-02T04:26:18.493Z,59.73
2019-05-02T04:27:33.926Z,59.61
2019-05-02T04:28:38.147Z,59.69
2019-05-02T04:29:46.155Z,59.79
2019-05-02T04:30:54.152Z,59.72
2019-05-02T04:32:04.316Z,59.61
2019-05-02T04:33:12.593Z,59.75
2019-05-02T04:34:20.578Z,59.60
2019-05-02T04:35:34.514Z,59.53
2019-05-02T04:36:38.358Z,59.57
2019-05-02T04:37:46.313Z,59.53
2019-05-02T04:38:54.242Z,59.43
2019-05-02T04:40:04.042Z,59.53
2019-05-02T04:41:18.733Z,59.44
2019-05-02T04:42:23.266Z,59.41
2019-05-02T04:43:31.417Z,59.36
2019-05-02T04:44:46.361Z,59.33
2019-05-02T04:45:55.975Z,59.14
2019-05-02T04:46:59.849Z,59.15
2019-05-02T04:48:08.446Z,59.11
2019-05-02T04:49:22.210Z,58.86
2019-05-02T04:50:29.433Z,58.63
2019-05-02T04:51:38.164Z,58.47
2019-05-02T04:52:52.140Z,58.32
2019-05-02T04:53:58.587Z,58.14
2019-05-02T04:55:19.889Z,57.78
2019-05-02T04:56:18.509Z,57.29
2019-05-02T04:57:35.527Z,57.09
2019-05-02T04:58:39.739Z,56.92
2019-05-02T04:59:50.089Z,56.75
2019-05-02T05:00:59.319Z,56.73
2019-05-02T05:02:04.844Z,56.75
2019-05-02T05:03:15.701Z,56.74
2019-05-02T05:04:22.549Z,56.55
2019-05-02T05:05:31.479Z,56.35
2019-05-02T05:06:40.893Z,56.42
2019-05-02T05:07:49.560Z,56.27
2019-05-02T05:08:58.417Z,56.40
2019-05-02T05:10:09.690Z,56.27
2019-05-02T05:11:21.259Z,56.35
2019-05-02T05:12:27.792Z,56.29
2019-05-02T05:13:37.392Z,56.15
2019-05-02T05:14:47.455Z,56.18
2019-05-02T05:15:57.262Z,56.15
2019-05-02T05:17:07.876Z,56.11
2019-05-02T05:18:17.524Z,56.21
2019-05-02T05:19:30.933Z,56.14
2019-05-02T05:20:37.710Z,56.13
2019-05-02T05:21:44.594Z,56.07
2019-05-02T05:22:52.597Z,56.06
2019-05-02T05:24:01.550Z,55.95
2019-05-02T05:25:28.034Z,55.94
2019-05-02T05:26:40.958Z,55.89
2019-05-02T05:27:47.948Z,55.96
2019-05-02T05:28:58.383Z,56.05
2019-05-02T05:30:15.174Z,56.06
2019-05-02T05:31:24.187Z,56.13
2019-05-02T05:32:28.231Z,56.05
2019-05-02T05:33:37.782Z,55.94
2019-05-02T05:34:47.807Z,56.02
2019-05-02T05:35:55.437Z,55.85
2019-05-02T05:37:08.363Z,55.94
2019-05-02T05:38:13.583Z,55.95
2019-05-02T05:39:22.200Z,55.96
2019-05-02T05:40:32.099Z,56.04
2019-05-02T05:41:42.754Z,55.98
2019-05-02T05:42:49.755Z,55.42
2019-05-02T05:43:57.752Z,55.49
2019-05-02T05:45:12.058Z,55.28
2019-05-02T05:46:18.157Z,55.23
2019-05-02T05:47:27.414Z,55.19
2019-05-02T05:48:39.203Z,55.19
2019-05-02T05:49:44.933Z,55.28
2019-05-02T05:50:52.944Z,55.32
2019-05-02T05:52:03.788Z,55.05
2019-05-02T05:53:12.490Z,55.10
2019-05-02T05:54:20.496Z,55.15
2019-05-02T05:55:31.418Z,54.82
2019-05-02T05:56:42.885Z,54.80
2019-05-02T05:57:50.124Z,54.70
2019-05-02T05:58:59.178Z,54.50
2019-05-02T06:00:15.939Z,54.69
2019-05-02T06:01:20.465Z,54.59
2019-05-02T06:02:28.727Z,54.24
2019-05-02T06:03:41.981Z,54.20
2019-05-02T06:04:47.356Z,54.18
2019-05-02T06:05:57.961Z,54.19
2019-05-02T06:07:07.229Z,54.18
2019-05-02T06:08:18.499Z,53.89
2019-05-02T06:09:26.290Z,53.87
2019-05-02T06:10:38.943Z,53.78
2019-05-02T06:11:44.786Z,53.85
2019-05-02T06:12:52.728Z,54.06
2019-05-02T06:14:00.773Z,53.77
2019-05-02T06:15:09.201Z,53.41
2019-05-02T06:16:17.053Z,52.84
2019-05-02T06:17:28.528Z,52.46
2019-05-02T06:18:36.340Z,52.78
2019-05-02T06:19:48.280Z,53.02
2019-05-02T06:20:53.653Z,52.81
2019-05-02T06:22:02.244Z,52.76
2019-05-02T06:23:10.134Z,52.64
2019-05-02T06:24:19.112Z,52.92
2019-05-02T06:25:34.146Z,52.42
2019-05-02T06:26:37.275Z,52.43
2019-05-02T06:27:45.187Z,52.26
2019-05-02T06:28:53.465Z,52.17
2019-05-02T06:30:01.441Z,52.17
2019-05-02T06:31:10.142Z,52.19
2019-05-02T06:32:19.361Z,52.11
2019-05-02T06:33:30.453Z,52.45
2019-05-02T06:34:38.725Z,52.36
2019-05-02T06:35:47.473Z,51.95
2019-05-02T06:36:55.453Z,52.44
2019-05-02T06:38:03.487Z,52.27
2019-05-02T06:39:11.329Z,51.96
2019-05-02T06:40:19.508Z,52.05
2019-05-02T06:41:27.677Z,51.90
2019-05-02T06:42:37.924Z,52.16
2019-05-02T06:43:46.579Z,51.50
2019-05-02T06:44:59.748Z,51.17
2019-05-02T06:46:15.465Z,51.11
2019-05-02T06:47:14.978Z,50.73
2019-05-02T06:48:22.907Z,50.97
2019-05-02T06:49:30.817Z,51.22
2019-05-02T06:50:40.519Z,51.18
2019-05-02T06:51:51.044Z,50.95
2019-05-02T06:52:58.580Z,51.10
2019-05-02T06:54:06.659Z,51.07
2019-05-02T06:55:15.093Z,51.24
2019-05-02T06:56:23.164Z,51.04
2019-05-02T06:57:31.287Z,51.17
2019-05-02T06:58:42.043Z,51.01
2019-05-02T06:59:49.964Z,50.62
2019-05-02T07:00:59.352Z,50.48
2019-05-02T07:02:07.644Z,50.61
2019-05-02T07:03:16.043Z,50.68
2019-05-02T07:04:25.027Z,50.65
2019-05-02T07:05:33.427Z,50.95
2019-05-02T07:06:55.946Z,51.23
2019-05-02T07:07:50.980Z,51.21
2019-05-02T07:08:59.737Z,51.17
2019-05-02T07:10:10.429Z,51.00
2019-05-02T07:11:18.413Z,50.74
2019-05-02T07:12:26.315Z,50.83
2019-05-02T07:13:36.446Z,50.85
2019-05-02T07:14:45.870Z,50.70
2019-05-02T07:16:04.995Z,50.67
2019-05-02T07:17:13.103Z,50.57
2019-05-02T07:18:22.812Z,50.63
2019-05-02T07:19:41.688Z,49.97
2019-05-02T07:20:49.868Z,49.79
2019-05-02T07:22:00.373Z,49.42
2019-05-02T07:23:10.527Z,49.52
2019-05-02T07:24:17.769Z,49.79
2019-05-02T07:25:25.684Z,50.19
2019-05-02T07:26:34.270Z,50.10
2019-05-02T07:27:42.135Z,49.45
2019-05-02T07:28:50.628Z,49.34
2019-05-02T07:29:59.706Z,49.38
2019-05-02T07:31:11.923Z,49.35
2019-05-02T07:32:19.313Z,49.51
2019-05-02T07:33:32.180Z,49.17
2019-05-02T07:34:37.782Z,49.03
2019-05-02T07:35:45.818Z,49.16
2019-05-02T07:36:53.976Z,49.05
2019-05-02T07:38:02.060Z,49.25
2019-05-02T07:39:11.195Z,49.32
2019-05-02T07:40:19.325Z,49.00
2019-05-02T07:41:29.060Z,49.31
2019-05-02T07:42:41.764Z,49.66
2019-05-02T07:43:52.155Z,49.60
2019-05-02T07:44:57.883Z,49.18
2019-05-02T07:46:06.626Z,48.82
2019-05-02T07:47:15.017Z,48.95
2019-05-02T07:48:23.470Z,48.52
2019-05-02T07:49:32.436Z,48.34
2019-05-02T07:50:45.979Z,48.07
2019-05-02T07:51:52.452Z,47.85
2019-05-02T07:53:04.382Z,47.80
2019-05-02T07:54:10.884Z,47.84
2019-05-02T07:55:18.860Z,48.05
2019-05-02T07:56:27.502Z,47.97
2019-05-02T07:57:35.804Z,47.82
2019-05-02T07:58:46.965Z,47.91
2019-05-02T07:59:55.094Z,48.04
2019-05-02T08:01:08.170Z,48.04
2019-05-02T08:02:13.172Z,48.31
2019-05-02T08:03:21.830Z,48.07
2019-05-02T08:04:29.798Z,47.81
2019-05-02T08:05:37.859Z,47.90
2019-05-02T08:06:46.437Z,48.01
2019-05-02T08:07:55.277Z,48.31
2019-05-02T08:09:07.137Z,47.54
2019-05-02T08:10:16.488Z,47.72
2019-05-02T08:11:25.400Z,47.82
2019-05-02T08:12:33.852Z,47.67
2019-05-02T08:13:41.829Z,47.43
2019-05-02T08:14:49.819Z,46.91
2019-05-02T08:15:57.705Z,46.61
2019-05-02T08:17:16.085Z,46.73
2019-05-02T08:18:16.099Z,46.49
2019-05-02T08:19:24.201Z,46.64
2019-05-02T08:20:32.196Z,46.92
2019-05-02T08:21:40.378Z,46.50
2019-05-02T08:22:50.180Z,46.11
2019-05-02T08:24:02.297Z,46.23
2019-05-02T08:25:10.884Z,46.11
2019-05-02T08:26:21.595Z,46.26
2019-05-02T08:27:34.597Z,46.35
2019-05-02T08:28:51.861Z,45.87
2019-05-02T08:30:00.103Z,45.84
2019-05-02T08:31:07.172Z,46.02
2019-05-02T08:32:15.262Z,45.93
2019-05-02T08:33:29.100Z,45.82
2019-05-02T08:34:34.187Z,46.45
2019-05-02T08:35:42.737Z,45.99
2019-05-02T08:36:50.613Z,45.63
2019-05-02T08:37:58.815Z,45.70
2019-05-02T08:39:08.468Z,45.73
2019-05-02T08:40:16.815Z,45.35
2019-05-02T08:41:24.967Z,44.98
2019-05-02T08:42:33.878Z,44.44
2019-05-02T08:43:44.898Z,44.21
2019-05-02T08:44:56.342Z,44.02
2019-05-02T08:46:02.297Z,44.43
2019-05-02T08:47:18.745Z,44.44
2019-05-02T08:48:22.678Z,44.30
2019-05-02T08:49:30.055Z,43.90
2019-05-02T08:50:38.230Z,43.81
2019-05-02T08:51:46.294Z,43.95
2019-05-02T08:52:54.614Z,43.84
2019-05-02T08:54:02.695Z,44.07
2019-05-02T08:55:11.713Z,43.64
2019-05-02T08:56:21.286Z,43.24
2019-05-02T08:57:30.187Z,43.29
2019-05-02T08:58:39.526Z,42.18
2019-05-02T08:59:47.508Z,42.20
2019-05-02T09:00:55.632Z,42.75
2019-05-02T09:02:03.607Z,42.55
2019-05-02T09:03:11.813Z,42.49
2019-05-02T09:04:24.117Z,42.45
2019-05-02T09:05:30.002Z,42.25
2019-05-02T09:06:38.446Z,42.39
2019-05-02T09:07:46.472Z,42.85
2019-05-02T09:08:54.543Z,42.62
2019-05-02T09:10:05.842Z,42.97
2019-05-02T09:11:15.673Z,42.92
2019-05-02T09:12:23.109Z,42.45
2019-05-02T09:13:33.038Z,42.00
2019-05-02T09:14:42.542Z,41.74
2019-05-02T09:15:53.572Z,41.13
2019-05-02T09:17:06.002Z,40.65
2019-05-02T09:18:12.291Z,40.47
2019-05-02T09:19:21.452Z,40.40
2019-05-02T09:20:31.482Z,40.18
2019-05-02T09:21:39.556Z,40.25
2019-05-02T09:22:52.247Z,40.16
2019-05-02T09:23:57.116Z,40.26
2019-05-02T09:25:07.091Z,40.41
2019-05-02T09:26:14.985Z,40.49
2019-05-02T09:27:23.887Z,39.85
2019-05-02T09:28:32.168Z,39.67
2019-05-02T09:29:44.441Z,39.89
2019-05-02T09:30:52.309Z,40.09
2019-05-02T09:32:01.795Z,40.24
2019-05-02T09:33:11.303Z,40.00
2019-05-02T09:34:25.008Z,39.98
2019-05-02T09:35:29.304Z,39.56
2019-05-02T09:36:38.229Z,39.35
2019-05-02T09:37:46.385Z,38.58
2019-05-02T09:38:57.570Z,39.29
2019-05-02T09:40:06.892Z,39.37
2019-05-02T09:41:19.072Z,39.62
2019-05-02T09:42:24.162Z,38.81
2019-05-02T09:43:37.496Z,39.03
2019-05-02T09:44:42.813Z,40.08
2019-05-02T09:45:52.023Z,39.31
2019-05-02T09:47:02.244Z,39.52
2019-05-02T09:48:12.365Z,39.97
2019-05-02T09:49:21.897Z,39.34
2019-05-02T09:50:31.345Z,39.32
2019-05-02T09:51:39.321Z,39.94
2019-05-02T09:52:47.867Z,39.75
2019-05-02T09:53:57.090Z,38.42
2019-05-02T09:55:08.646Z,38.28
2019-05-02T09:56:16.870Z,38.98
2019-05-02T09:57:25.109Z,38.63
2019-05-02T09:58:33.199Z,38.45
2019-05-02T09:59:43.453Z,38.11
2019-05-02T10:00:58.609Z,38.79
2019-05-02T10:02:06.749Z,38.12
2019-05-02T10:03:15.834Z,38.62
2019-05-02T10:04:24.057Z,37.43
2019-05-02T10:05:32.318Z,37.30
2019-05-02T10:06:42.328Z,38.06
2019-05-02T10:07:52.433Z,37.14
2019-05-02T10:09:02.621Z,36.76
2019-05-02T10:10:12.601Z,36.72
2019-05-02T10:11:22.463Z,37.02
2019-05-02T10:12:32.112Z,37.12
2019-05-02T10:13:42.328Z,37.07
2019-05-02T10:14:50.212Z,37.09
2019-05-02T10:15:58.418Z,36.98
2019-05-02T10:17:07.437Z,36.44
2019-05-02T10:18:19.672Z,36.42
2019-05-02T10:19:26.126Z,36.33
2019-05-02T10:20:36.405Z,36.43
2019-05-02T10:21:47.088Z,36.62
2019-05-02T10:22:54.075Z,36.75
2019-05-02T10:24:03.845Z,37.08
2019-05-02T10:25:13.583Z,37.08
2019-05-02T10:26:24.561Z,37.32
2019-05-02T10:27:32.281Z,37.34
2019-05-02T10:28:41.735Z,37.70
2019-05-02T10:29:52.447Z,37.37
2019-05-02T10:31:02.118Z,37.15
2019-05-02T10:32:15.087Z,36.73
2019-05-02T10:33:22.421Z,37.12
2019-05-02T10:34:30.469Z,36.59
2019-05-02T10:35:45.809Z,36.69
2019-05-02T10:36:58.962Z,37.00
2019-05-02T10:38:03.885Z,37.51
2019-05-02T10:39:15.670Z,36.12
2019-05-02T10:40:22.485Z,36.26
2019-05-02T10:41:31.696Z,36.26
2019-05-02T10:42:41.948Z,36.59
2019-05-02T10:43:53.918Z,36.18
2019-05-02T10:44:59.758Z,37.20
2019-05-02T10:46:09.595Z,36.86
2019-05-02T10:47:17.670Z,36.57
2019-05-02T10:48:28.600Z,35.60
2019-05-02T10:49:49.290Z,35.75
2019-05-02T10:51:15.053Z,34.08
2019-05-02T10:52:29.703Z,34.11
2019-05-02T10:53:33.022Z,34.16
2019-05-02T10:54:42.199Z,34.48
2019-05-02T10:55:52.337Z,34.26
2019-05-02T10:57:02.165Z,34.56
2019-05-02T10:58:09.722Z,34.66
2019-05-02T10:59:17.721Z,35.23
2019-05-02T11:00:28.035Z,35.74
2019-05-02T11:01:38.235Z,34.89
2019-05-02T11:03:03.884Z,34.79
2019-05-02T11:04:13.672Z,34.71
2019-05-02T11:05:26.454Z,34.66
2019-05-02T11:06:37.261Z,34.38
2019-05-02T11:07:42.993Z,34.33
2019-05-02T11:08:52.497Z,34.69
2019-05-02T11:10:03.097Z,34.70
2019-05-02T11:11:12.700Z,34.80
2019-05-02T11:12:40.270Z,35.01
2019-05-02T11:13:40.086Z,34.69
2019-05-02T11:14:59.238Z,34.36
2019-05-02T11:16:23.747Z,34.90
2019-05-02T11:17:36.703Z,34.00
2019-05-02T11:18:49.483Z,34.15
2019-05-02T11:19:59.094Z,33.99
2019-05-02T11:21:08.358Z,34.43
2019-05-02T11:22:16.685Z,34.77
2019-05-02T11:23:24.952Z,34.09
2019-05-02T11:24:33.102Z,34.84
2019-05-02T11:25:42.157Z,33.83
2019-05-02T11:26:50.320Z,33.81
2019-05-02T11:28:02.828Z,32.95
2019-05-02T11:29:08.006Z,33.20
2019-05-02T11:30:21.002Z,32.64
2019-05-02T11:31:26.873Z,32.32
2019-05-02T11:32:35.175Z,32.41
2019-05-02T11:33:43.247Z,32.78
2019-05-02T11:34:52.447Z,33.11
2019-05-02T11:36:02.513Z,33.53
2019-05-02T11:37:12.046Z,33.49
2019-05-02T11:38:25.697Z,33.72
2019-05-02T11:39:37.321Z,33.79
2019-05-02T11:40:39.081Z,33.79
2019-05-02T11:41:47.099Z,33.72
2019-05-02T11:42:57.186Z,33.52
2019-05-02T11:44:04.745Z,33.33
2019-05-02T11:45:12.938Z,33.10
2019-05-02T11:46:22.028Z,33.18
2019-05-02T11:47:32.704Z,33.24
2019-05-02T11:48:54.681Z,33.53
2019-05-02T11:49:52.061Z,33.67
2019-05-02T11:51:00.107Z,33.30
2019-05-02T11:52:07.959Z,33.05
2019-05-02T11:53:28.846Z,32.76
2019-05-02T11:54:27.723Z,32.32
2019-05-02T11:55:35.677Z,32.40
2019-05-02T11:56:49.039Z,32.54
2019-05-02T11:57:53.601Z,32.81
2019-05-02T11:59:02.906Z,32.60
2019-05-02T12:00:13.524Z,32.71
2019-05-02T12:01:34.989Z,32.83
2019-05-02T12:02:37.024Z,33.28
2019-05-02T12:03:46.700Z,33.30
2019-05-02T12:04:55.641Z,33.24
2019-05-02T12:06:06.778Z,33.42
2019-05-02T12:07:13.425Z,33.42
2019-05-02T12:08:22.616Z,33.25
2019-05-02T12:09:31.923Z,32.97
2019-05-02T12:10:42.054Z,33.11
2019-05-02T12:11:52.705Z,33.09
2019-05-02T12:12:59.442Z,33.05
2019-05-02T12:14:07.581Z,32.78
2019-05-02T12:15:15.856Z,32.57
2019-05-02T12:16:24.455Z,33.05
2019-05-02T12:17:32.690Z,33.34
2019-05-02T12:18:41.919Z,33.56
2019-05-02T12:19:52.230Z,33.40
2019-05-02T12:20:59.959Z,32.69
2019-05-02T12:22:13.023Z,32.15
2019-05-02T12:23:18.043Z,32.41
2019-05-02T12:24:26.158Z,32.33
2019-05-02T12:25:34.422Z,33.04
2019-05-02T12:26:42.590Z,32.95
2019-05-02T12:27:52.550Z,32.47
2019-05-02T12:29:02.395Z,31.96
2019-05-02T12:30:11.775Z,32.05
2019-05-02T12:31:29.467Z,32.28
2019-05-02T12:32:37.340Z,33.06
2019-05-02T12:33:45.379Z,33.44
2019-05-02T12:34:53.447Z,33.96
2019-05-02T12:36:02.623Z,33.67
2019-05-02T12:37:12.499Z,33.22
2019-05-02T12:38:22.899Z,33.35
2019-05-02T12:39:31.698Z,33.64
2019-05-02T12:40:42.042Z,33.69
2019-05-02T12:41:49.936Z,34.22
2019-05-02T12:42:58.089Z,32.51
2019-05-02T12:44:07.002Z,32.60
2019-05-02T12:45:16.381Z,31.85
2019-05-02T12:48:57.137Z,31.40
2019-05-02T12:50:07.296Z,31.92
2019-05-02T12:51:15.299Z,32.02
2019-05-02T12:52:23.396Z,31.09
2019-05-02T12:53:32.645Z,31.73
2019-05-02T12:54:41.713Z,30.68
2019-05-02T12:56:11.936Z,30.35
2019-05-02T12:57:22.005Z,30.02
2019-05-02T12:58:30.097Z,30.76
2019-05-02T12:59:38.579Z,31.40
2019-05-02T13:00:46.879Z,31.47
2019-05-02T13:01:55.281Z,30.75
2019-05-02T13:03:07.641Z,30.09
2019-05-02T13:04:15.634Z,30.09
2019-05-02T13:05:24.220Z,29.54
2019-05-02T13:06:32.793Z,29.34
2019-05-02T13:07:42.865Z,29.53
2019-05-02T13:08:52.579Z,29.66
2019-05-02T13:10:02.403Z,29.97
2019-05-02T13:11:18.187Z,30.13
2019-05-02T13:12:27.815Z,30.41
2019-05-02T13:13:35.897Z,30.39
2019-05-02T13:14:44.041Z,30.45
2019-05-02T13:15:52.217Z,30.86
2019-05-02T13:17:03.610Z,30.90
2019-05-02T13:18:12.363Z,30.83
2019-05-02T13:19:23.709Z,30.45
2019-05-02T13:20:36.595Z,31.03
2019-05-02T13:21:50.112Z,30.79
2019-05-02T13:23:13.271Z,30.99
2019-05-02T13:24:34.998Z,31.17
2019-05-02T13:25:43.126Z,30.72
2019-05-02T13:26:59.113Z,30.06
2019-05-02T13:28:01.940Z,29.27
2019-05-02T13:29:11.830Z,28.66
2019-05-02T13:30:25.843Z,28.49
2019-05-02T13:31:33.608Z,28.58
2019-05-02T13:32:47.899Z,29.01
2019-05-02T13:34:10.586Z,29.15
2019-05-02T13:35:22.286Z,29.10
2019-05-02T13:36:49.133Z,29.07
2019-05-02T13:37:58.975Z,29.20
2019-05-02T13:39:12.380Z,29.17
2019-05-02T13:40:22.693Z,29.07
2019-05-02T13:41:32.167Z,29.09
2019-05-02T13:42:41.814Z,28.81
2019-05-02T13:43:52.533Z,28.93
2019-05-02T13:45:02.385Z,29.45
2019-05-02T13:46:12.683Z,29.98
2019-05-02T13:47:25.541Z,29.21
2019-05-02T13:48:33.733Z,29.34
2019-05-02T13:49:53.632Z,29.19
2019-05-02T13:50:51.897Z,28.39
2019-05-02T13:52:02.354Z,28.22
2019-05-02T13:53:15.147Z,28.55
2019-05-02T13:54:23.126Z,28.01
2019-05-02T13:55:33.145Z,27.77
2019-05-02T13:56:52.840Z,27.67
2019-05-02T13:58:02.329Z,27.56
2019-05-02T13:59:11.139Z,27.75
2019-05-02T14:00:24.989Z,28.17
2019-05-02T14:01:33.317Z,27.88
2019-05-02T14:02:43.886Z,28.12
2019-05-02T14:03:55.223Z,28.51
2019-05-02T14:05:02.336Z,28.64
2019-05-02T14:06:12.365Z,28.09
2019-05-02T14:07:21.744Z,28.36
2019-05-02T14:08:35.380Z,28.32
2019-05-02T14:09:50.838Z,28.13
2019-05-02T14:11:07.317Z,28.18
2019-05-02T14:12:17.012Z,28.24
2019-05-02T14:13:25.200Z,27.96
2019-05-02T14:14:32.976Z,27.86
2019-05-02T14:15:42.054Z,27.75
2019-05-02T14:16:50.524Z,27.88
2019-05-02T14:17:58.416Z,27.71
2019-05-02T14:19:06.342Z,27.90
2019-05-02T14:20:14.365Z,28.18
2019-05-02T14:21:22.502Z,28.45
2019-05-02T14:22:32.401Z,28.72
2019-05-02T14:23:41.921Z,28.55
2019-05-02T14:24:51.925Z,28.85
2019-05-02T14:26:01.891Z,28.86
2019-05-02T14:27:12.845Z,28.65
2019-05-02T14:28:19.140Z,28.74
2019-05-02T14:29:27.219Z,28.42
2019-05-02T14:30:40.065Z,28.38
2019-05-02T14:31:45.189Z,28.15
2019-05-02T14:32:53.335Z,28.21
2019-05-02T14:34:18.980Z,27.98
2019-05-02T14:35:28.704Z,27.92
2019-05-02T14:36:36.741Z,27.89
2019-05-02T14:37:44.711Z,27.85
2019-05-02T14:38:52.602Z,28.08
2019-05-02T14:40:06.414Z,28.34
2019-05-02T14:41:15.878Z,28.16
2019-05-02T14:42:26.093Z,28.35
2019-05-02T14:43:53.762Z,27.96
2019-05-02T14:45:11.939Z,28.04
2019-05-02T14:46:12.619Z,28.12
2019-05-02T14:47:22.405Z,28.44
2019-05-02T14:48:41.088Z,28.33
2019-05-02T14:49:44.518Z,28.05
2019-05-02T14:50:52.639Z,28.06
2019-05-02T14:52:06.867Z,27.68
2019-05-02T14:53:12.067Z,27.42
2019-05-02T14:54:20.130Z,27.21
2019-05-02T14:55:29.623Z,27.66
2019-05-02T14:56:43.409Z,27.57
2019-05-02T14:57:48.874Z,27.49
2019-05-02T14:58:56.835Z,27.50
2019-05-02T15:00:07.709Z,27.76
2019-05-02T15:01:17.212Z,27.99